Time;durP1;ratioP1;P1;durP2;ratioP2;P2;SDS_P1;SDS_P2;PMS_P1;PMS_P2;Temp;Humidity;BMP_temperature;BMP_pressure;BME280_temperature;BME280_humidity;BME280_pressure;Samples;Min_cycle;Max_cycle;Signal;HPM_P1;HPM_P2
2020/12/04 00:01:20;;;;;;;0.28;0.28;;;7.90;86.40;;;;;;4100529;28;20578;-89
2020/12/04 00:03:22;;;;;;;0.50;0.50;;;7.90;86.60;;;;;;4069627;29;20059;-89
2020/12/04 00:05:23;;;;;;;0.40;0.40;;;7.90;86.70;;;;;;4068537;29;20056;-87
2020/12/04 00:07:25;;;;;;;0.30;0.30;;;7.90;86.60;;;;;;4071131;29;20052;-88
2020/12/04 00:09:26;;;;;;;0.20;0.20;;;7.90;86.50;;;;;;4069277;29;20139;-88
2020/12/04 00:11:32;;;;;;;0.20;0.20;;;7.90;86.70;;;;;;4068711;29;20056;-88
2020/12/04 00:13:34;;;;;;;0.75;0.70;;;7.90;86.70;;;;;;4084411;29;20044;-88
2020/12/04 00:15:35;;;;;;;0.30;0.30;;;7.90;86.70;;;;;;4084873;29;20065;-88
2020/12/04 00:17:36;;;;;;;0.30;0.30;;;7.90;85.80;;;;;;4069437;29;20052;-88
2020/12/04 00:19:38;;;;;;;1.48;1.38;;;7.90;86.00;;;;;;4084166;29;20060;-89
2020/12/04 00:21:41;;;;;;;0.40;0.40;;;7.90;85.80;;;;;;4068996;29;20075;-89
2020/12/04 00:23:42;;;;;;;0.73;0.65;;;7.90;85.90;;;;;;4084523;29;20055;-88
2020/12/04 00:25:43;;;;;;;0.50;0.50;;;7.90;85.90;;;;;;4099952;28;20059;-89
2020/12/04 00:27:44;;;;;;;0.63;0.30;;;7.90;85.60;;;;;;4068683;29;20056;-89
2020/12/04 00:29:45;;;;;;;0.40;0.40;;;7.90;85.60;;;;;;4084744;29;20062;-88
2020/12/04 00:31:47;;;;;;;0.30;0.30;;;7.90;85.60;;;;;;4068267;29;20074;-88
2020/12/04 00:33:48;;;;;;;0.47;0.30;;;7.90;86.00;;;;;;4068835;29;20116;-89
2020/12/04 00:35:50;;;;;;;0.82;0.55;;;7.90;85.40;;;;;;4068806;29;20452;-88
2020/12/04 00:37:51;;;;;;;0.50;0.40;;;7.90;85.60;;;;;;4099587;28;20068;-88
2020/12/04 00:39:53;;;;;;;4.70;0.70;;;7.90;85.70;;;;;;4084179;29;20052;-89
2020/12/04 00:41:58;;;;;;;0.30;0.30;;;7.90;85.90;;;;;;4084799;29;20106;-88
2020/12/04 00:43:59;;;;;;;0.30;0.30;;;8.00;86.10;;;;;;4099411;28;20053;-87
2020/12/04 00:46:01;;;;;;;1.05;0.63;;;8.00;86.00;;;;;;4083848;29;20052;-87
2020/12/04 00:48:02;;;;;;;0.30;0.30;;;7.90;85.90;;;;;;4084967;29;20294;-87
2020/12/04 00:50:03;;;;;;;0.63;0.63;;;7.90;85.50;;;;;;4083521;29;20056;-88
2020/12/04 00:52:04;;;;;;;0.30;0.30;;;7.90;85.00;;;;;;4099830;28;20059;-87
2020/12/04 00:54:06;;;;;;;0.68;0.60;;;8.00;85.40;;;;;;4068520;29;20056;-87
2020/12/04 00:56:07;;;;;;;0.40;0.40;;;8.00;85.50;;;;;;4065511;29;20056;-88
2020/12/04 00:58:08;;;;;;;0.57;0.50;;;8.00;85.00;;;;;;4099972;28;20539;-87
2020/12/04 01:00:11;;;;;;;0.55;0.43;;;7.90;85.00;;;;;;4084395;29;20051;-87
2020/12/04 01:02:12;;;;;;;0.35;0.35;;;8.00;85.40;;;;;;4083883;29;20082;-88
2020/12/04 01:04:13;;;;;;;1.25;1.15;;;8.00;85.00;;;;;;4099657;28;20049;-88
2020/12/04 01:06:14;;;;;;;0.40;0.40;;;8.00;84.60;;;;;;4070386;29;20052;-87
2020/12/04 01:08:16;;;;;;;0.40;0.40;;;8.00;84.50;;;;;;4083843;28;20504;-87
2020/12/04 01:10:18;;;;;;;0.38;0.38;;;8.00;84.80;;;;;;4085014;29;20056;-87
2020/12/04 01:12:20;;;;;;;3.20;1.40;;;8.00;84.30;;;;;;4070015;28;20111;-87
2020/12/04 01:14:21;;;;;;;0.55;0.55;;;8.00;83.80;;;;;;4084505;29;20080;-87
2020/12/04 01:16:23;;;;;;;0.30;0.30;;;8.00;84.20;;;;;;4100906;28;20055;-87
2020/12/04 01:18:24;;;;;;;0.85;0.75;;;8.10;83.20;;;;;;4084686;29;20068;-87
2020/12/04 01:20:27;;;;;;;1.55;0.30;;;8.10;83.20;;;;;;4083871;28;20505;-87
2020/12/04 01:22:29;;;;;;;0.30;0.30;;;8.10;83.20;;;;;;4085048;29;20056;-87
2020/12/04 01:24:30;;;;;;;0.45;0.45;;;8.10;83.40;;;;;;4085233;28;20059;-87
2020/12/04 01:26:32;;;;;;;0.40;0.40;;;8.20;83.20;;;;;;4083544;29;20138;-87
2020/12/04 01:28:33;;;;;;;0.50;0.50;;;8.20;83.00;;;;;;4067776;29;20060;-87
2020/12/04 01:30:35;;;;;;;0.30;0.30;;;8.20;83.10;;;;;;4083865;29;20059;-87
2020/12/04 01:32:36;;;;;;;0.90;0.73;;;8.20;82.50;;;;;;4067982;29;20059;-87
2020/12/04 01:34:37;;;;;;;0.85;0.85;;;8.30;82.50;;;;;;4067769;29;20050;-87
2020/12/04 01:36:39;;;;;;;0.60;0.60;;;8.30;82.70;;;;;;4083886;29;20071;-88
2020/12/04 01:38:40;;;;;;;0.30;0.30;;;8.30;82.50;;;;;;4083712;29;20052;-87
2020/12/04 01:40:42;;;;;;;0.20;0.20;;;8.30;82.70;;;;;;4069929;29;20079;-87
2020/12/04 01:42:43;;;;;;;0.32;0.32;;;8.40;83.00;;;;;;4069071;29;20139;-87
2020/12/04 01:44:45;;;;;;;0.68;0.55;;;8.30;83.10;;;;;;4083926;29;20065;-87
2020/12/04 01:46:49;;;;;;;0.40;0.40;;;8.30;83.40;;;;;;4084478;28;20048;-87
2020/12/04 01:48:50;;;;;;;0.32;0.32;;;8.40;83.60;;;;;;4070297;29;20059;-87
2020/12/04 01:50:52;;;;;;;0.40;0.40;;;8.40;84.30;;;;;;4084292;29;20051;-87
2020/12/04 01:52:53;;;;;;;0.30;0.30;;;8.40;83.50;;;;;;4113091;28;20205;-87
2020/12/04 01:54:55;;;;;;;0.30;0.30;;;8.50;83.50;;;;;;4083285;29;20047;-87
2020/12/04 01:56:56;;;;;;;0.93;0.93;;;8.50;83.60;;;;;;4070231;29;20051;-88
2020/12/04 01:58:57;;;;;;;0.20;0.20;;;8.50;83.50;;;;;;4084094;29;20044;-86
2020/12/04 02:00:59;;;;;;;0.30;0.30;;;8.50;83.90;;;;;;4083066;29;20052;-87
2020/12/04 02:03:00;;;;;;;1.48;0.50;;;8.50;84.10;;;;;;4067683;29;20071;-88
2020/12/04 02:05:02;;;;;;;0.50;0.50;;;8.50;84.30;;;;;;4099084;28;20086;-87
2020/12/04 02:07:06;;;;;;;0.60;0.60;;;8.40;84.30;;;;;;4066793;29;20448;-88
2020/12/04 02:09:17;;;;;;;0.20;0.20;;;8.40;84.30;;;;;;4068059;29;20059;-87
2020/12/04 02:11:21;;;;;;;0.82;0.30;;;8.50;84.00;;;;;;4069123;29;20060;-87
2020/12/04 02:13:22;;;;;;;0.40;0.40;;;8.40;83.90;;;;;;4069238;29;20048;-87
2020/12/04 02:15:23;;;;;;;0.30;0.30;;;8.50;83.60;;;;;;4067622;29;20071;-87
2020/12/04 02:17:29;;;;;;;0.38;0.38;;;8.50;83.80;;;;;;4051492;29;20057;-87
2020/12/04 02:19:37;;;;;;;0.25;0.25;;;8.50;83.80;;;;;;4068351;29;20048;-87
2020/12/04 02:21:39;;;;;;;0.85;0.45;;;8.50;83.60;;;;;;4068597;29;20056;-87
2020/12/04 02:23:47;;;;;;;0.57;0.40;;;8.60;83.60;;;;;;4067542;29;20447;-87
2020/12/04 02:25:49;;;;;;;0.40;0.40;;;8.50;83.80;;;;;;4054697;29;20067;-88
2020/12/04 02:27:51;;;;;;;0.65;0.40;;;8.60;83.70;;;;;;4053268;29;20056;-87
2020/12/04 02:29:52;;;;;;;0.20;0.20;;;8.60;83.70;;;;;;4067505;29;20055;-87
2020/12/04 02:31:54;;;;;;;0.22;0.22;;;8.60;83.70;;;;;;4069461;29;20056;-87
2020/12/04 02:33:55;;;;;;;0.30;0.30;;;8.60;83.30;;;;;;4052857;29;20052;-87
2020/12/04 02:35:57;;;;;;;0.20;0.20;;;8.60;83.50;;;;;;4067890;29;20052;-87
2020/12/04 02:37:58;;;;;;;0.30;0.30;;;8.60;83.50;;;;;;4053179;29;20066;-87
2020/12/04 02:39:59;;;;;;;0.32;0.32;;;8.60;84.00;;;;;;4052437;29;20044;-88
2020/12/04 02:42:01;;;;;;;0.40;0.30;;;8.60;84.10;;;;;;4067803;29;20630;-87
2020/12/04 02:44:02;;;;;;;0.30;0.30;;;8.60;84.10;;;;;;4051659;29;20056;-87
2020/12/04 02:46:05;;;;;;;0.50;0.50;;;8.60;84.10;;;;;;4068439;29;20052;-87
2020/12/04 02:48:07;;;;;;;0.43;0.43;;;8.60;84.40;;;;;;4052602;29;20147;-86
2020/12/04 02:50:08;;;;;;;0.50;0.50;;;8.60;84.30;;;;;;4053841;29;20063;-88
2020/12/04 02:52:10;;;;;;;0.50;0.50;;;8.60;84.20;;;;;;4052714;29;20660;-87
2020/12/04 02:54:11;;;;;;;0.40;0.40;;;8.60;84.00;;;;;;4053952;29;20061;-87
2020/12/04 02:56:19;;;;;;;0.20;0.20;;;8.60;84.20;;;;;;4058959;29;20052;-87
2020/12/04 02:58:20;;;;;;;0.30;0.30;;;8.70;84.10;;;;;;4051532;29;20053;-87
2020/12/04 03:00:22;;;;;;;0.30;0.30;;;8.70;84.40;;;;;;4053888;29;20048;-87
2020/12/04 03:02:23;;;;;;;0.38;0.38;;;8.70;84.30;;;;;;4055743;29;20056;-87
2020/12/04 03:04:24;;;;;;;1.10;0.90;;;8.70;84.50;;;;;;4072619;29;20052;-87
2020/12/04 03:06:26;;;;;;;0.50;0.50;;;8.70;84.40;;;;;;4074157;29;20535;-87
2020/12/04 03:08:27;;;;;;;0.28;0.28;;;8.70;84.30;;;;;;4070196;29;20394;-87
2020/12/04 03:10:28;;;;;;;0.20;0.20;;;8.80;84.50;;;;;;4069792;29;20054;-87
2020/12/04 03:12:30;;;;;;;0.20;0.20;;;8.80;84.40;;;;;;4069762;29;20541;-87
2020/12/04 03:14:31;;;;;;;0.20;0.20;;;8.80;84.60;;;;;;4069803;29;20044;-87
2020/12/04 03:16:33;;;;;;;0.32;0.32;;;8.90;84.80;;;;;;4069310;29;20055;-87
2020/12/04 03:18:34;;;;;;;0.20;0.20;;;8.80;85.20;;;;;;4070017;29;20134;-87
2020/12/04 03:20:36;;;;;;;0.52;0.52;;;8.80;85.20;;;;;;4085531;29;20064;-88
2020/12/04 03:22:37;;;;;;;0.20;0.20;;;8.90;85.50;;;;;;4085860;29;20056;-87
2020/12/04 03:24:38;;;;;;;0.90;0.90;;;8.90;85.60;;;;;;4085454;29;20500;-87
2020/12/04 03:26:39;;;;;;;0.30;0.30;;;8.90;86.20;;;;;;4085772;29;20060;-87
2020/12/04 03:28:41;;;;;;;0.60;0.60;;;9.00;86.60;;;;;;4069211;29;20052;-87
2020/12/04 03:30:43;;;;;;;0.45;0.30;;;8.90;87.10;;;;;;4069292;29;20052;-88
2020/12/04 03:32:44;;;;;;;0.30;0.30;;;8.90;87.50;;;;;;4085786;29;20048;-87
2020/12/04 03:34:45;;;;;;;1.58;0.85;;;8.90;88.30;;;;;;4084774;29;20603;-87
2020/12/04 03:36:47;;;;;;;0.20;0.20;;;8.90;89.00;;;;;;4085513;29;20141;-87
2020/12/04 03:38:48;;;;;;;0.20;0.20;;;8.90;88.90;;;;;;4085745;29;20058;-87
2020/12/04 03:40:49;;;;;;;0.35;0.35;;;8.90;89.80;;;;;;4085020;29;20059;-87
2020/12/04 03:42:51;;;;;;;0.20;0.20;;;8.80;90.20;;;;;;4069773;29;20193;-87
2020/12/04 03:44:52;;;;;;;0.40;0.40;;;8.80;90.50;;;;;;4084979;29;20060;-87
2020/12/04 03:46:54;;;;;;;0.38;0.38;;;8.80;90.70;;;;;;4084633;29;20492;-87
2020/12/04 03:48:55;;;;;;;0.20;0.20;;;8.70;90.70;;;;;;4069183;29;20052;-88
2020/12/04 03:50:57;;;;;;;0.55;0.32;;;8.60;91.10;;;;;;4085119;29;20066;-87
2020/12/04 03:52:58;;;;;;;0.20;0.20;;;8.60;91.30;;;;;;4070406;29;20062;-87
2020/12/04 03:54:59;;;;;;;0.35;0.28;;;8.50;91.40;;;;;;4087057;29;20048;-87
2020/12/04 03:57:00;;;;;;;0.38;0.15;;;8.50;91.60;;;;;;4072085;29;20052;-87
2020/12/04 03:59:02;;;;;;;1.02;0.40;;;8.40;91.80;;;;;;4070194;29;20050;-88
2020/12/04 04:01:03;;;;;;;0.63;0.40;;;8.40;91.70;;;;;;4100852;28;20062;-87
2020/12/04 04:03:04;;;;;;;0.30;0.30;;;8.50;91.80;;;;;;4070023;29;20063;-87
2020/12/04 04:05:06;;;;;;;0.32;0.32;;;8.40;91.80;;;;;;4068173;29;20056;-87
2020/12/04 04:07:08;;;;;;;0.30;0.30;;;8.40;92.00;;;;;;4068871;29;20414;-87
2020/12/04 04:09:09;;;;;;;0.38;0.38;;;8.40;92.00;;;;;;4082409;29;20210;-87
2020/12/04 04:11:10;;;;;;;0.30;0.30;;;8.40;92.40;;;;;;4068931;29;20060;-88
2020/12/04 04:13:11;;;;;;;0.13;0.13;;;8.40;92.50;;;;;;4068968;29;20055;-88
2020/12/04 04:15:13;;;;;;;1.05;0.95;;;8.30;93.00;;;;;;4069219;29;20052;-88
2020/12/04 04:17:14;;;;;;;0.22;0.22;;;8.30;93.00;;;;;;4068403;29;20538;-88
2020/12/04 04:19:16;;;;;;;0.30;0.30;;;8.30;93.40;;;;;;4100307;29;20134;-88
2020/12/04 04:21:17;;;;;;;0.20;0.20;;;8.30;93.70;;;;;;4068987;29;20062;-87
2020/12/04 04:23:18;;;;;;;0.20;0.20;;;8.30;93.90;;;;;;4084276;29;20059;-88
2020/12/04 04:25:20;;;;;;;0.20;0.20;;;8.30;94.10;;;;;;4084490;29;20103;-88
2020/12/04 04:27:21;;;;;;;0.20;0.20;;;8.30;94.30;;;;;;4069018;29;20048;-88
2020/12/04 04:29:22;;;;;;;0.20;0.20;;;8.30;94.30;;;;;;4068305;29;20425;-88
2020/12/04 04:31:23;;;;;;;0.20;0.20;;;8.30;94.30;;;;;;4084340;29;20051;-88
2020/12/04 04:33:26;;;;;;;1.30;0.60;;;8.30;94.20;;;;;;4068991;29;20062;-88
2020/12/04 04:35:28;;;;;;;0.43;0.43;;;8.30;94.30;;;;;;4099907;28;20071;-88
2020/12/04 04:37:29;;;;;;;0.20;0.20;;;8.30;94.70;;;;;;4084422;29;20067;-88
2020/12/04 04:39:30;;;;;;;0.20;0.20;;;8.30;95.00;;;;;;4068793;29;20055;-88
2020/12/04 04:41:33;;;;;;;0.68;0.68;;;8.20;95.30;;;;;;4068991;29;20059;-88
2020/12/04 04:43:35;;;;;;;0.20;0.20;;;8.30;95.10;;;;;;4083538;29;20055;-89
2020/12/04 04:45:43;;;;;;;0.30;0.30;;;8.30;95.50;;;;;;4099815;28;20471;-87
2020/12/04 04:47:44;;;;;;;0.20;0.20;;;8.20;95.90;;;;;;4084826;28;20059;-87
2020/12/04 04:49:50;;;;;;;0.20;0.20;;;8.20;95.90;;;;;;4068059;29;20068;-87
2020/12/04 04:51:51;;;;;;;0.20;0.20;;;8.30;95.70;;;;;;4083859;29;20048;-87
2020/12/04 04:53:57;;;;;;;0.20;0.20;;;8.20;95.70;;;;;;4068751;29;20056;-87
2020/12/04 04:55:59;;;;;;;0.30;0.30;;;8.20;95.60;;;;;;4068001;29;20056;-87
2020/12/04 04:58:05;;;;;;;0.20;0.20;;;8.20;95.40;;;;;;4099423;28;20059;-88
2020/12/04 05:00:06;;;;;;;0.20;0.20;;;8.20;95.40;;;;;;4084874;29;20068;-87
2020/12/04 05:02:14;;;;;;;0.28;0.28;;;8.20;95.20;;;;;;4068412;29;20048;-88
2020/12/04 05:04:15;;;;;;;0.30;0.30;;;8.10;95.60;;;;;;4083350;29;20054;-88
2020/12/04 05:06:21;;;;;;;0.30;0.20;;;8.10;96.00;;;;;;4070804;29;20172;-89
2020/12/04 05:08:26;;;;;;;0.30;0.30;;;8.00;96.40;;;;;;4069270;29;20104;-88
2020/12/04 05:10:27;;;;;;;0.22;0.22;;;7.90;96.70;;;;;;4068798;29;20056;-89
2020/12/04 05:12:28;;;;;;;0.20;0.20;;;8.00;96.30;;;;;;4083508;29;20059;-89
2020/12/04 05:14:29;;;;;;;0.20;0.20;;;7.90;96.40;;;;;;4067850;29;20541;-89
2020/12/04 05:16:31;;;;;;;2.30;0.30;;;7.90;96.70;;;;;;4068163;29;20048;-88
2020/12/04 05:18:33;;;;;;;0.10;0.10;;;7.80;95.50;;;;;;4083412;29;20059;-89
2020/12/04 05:20:35;;;;;;;0.20;0.20;;;7.80;95.00;;;;;;4067478;29;20054;-89
2020/12/04 05:22:36;;;;;;;0.30;0.30;;;7.80;95.50;;;;;;4067574;29;20063;-89
2020/12/04 05:24:37;;;;;;;0.30;0.30;;;7.70;95.20;;;;;;4067965;29;20455;-89
2020/12/04 05:26:39;;;;;;;0.20;0.20;;;7.70;95.50;;;;;;4068010;29;20552;-89
2020/12/04 05:28:41;;;;;;;0.35;0.35;;;7.70;95.30;;;;;;4068074;29;20079;-89
2020/12/04 05:31:04;;;;;;;0.20;0.20;;;7.70;95.90;;;;;;4067758;29;20109;-89
2020/12/04 05:33:06;;;;;;;0.40;0.40;;;7.60;95.80;;;;;;4096227;28;20066;-89
2020/12/04 05:35:09;;;;;;;0.20;0.20;;;7.60;96.10;;;;;;4083547;29;20055;-88
2020/12/04 05:37:11;;;;;;;0.28;0.28;;;7.60;96.20;;;;;;4084008;28;20048;-88
2020/12/04 05:39:13;;;;;;;0.20;0.20;;;7.50;96.20;;;;;;4068675;29;20052;-88
2020/12/04 05:41:14;;;;;;;0.30;0.30;;;7.50;96.20;;;;;;4067976;29;20052;-88
2020/12/04 05:43:27;;;;;;;0.20;0.20;;;7.50;96.40;;;;;;4067886;29;20135;-88
2020/12/04 05:45:29;;;;;;;0.10;0.10;;;7.50;96.30;;;;;;4085080;29;20610;-89
2020/12/04 05:47:40;;;;;;;0.20;0.20;;;7.50;96.10;;;;;;4082499;29;20130;-88
2020/12/04 05:49:42;;;;;;;0.20;0.20;;;7.50;96.30;;;;;;4069754;29;20528;-89
2020/12/04 05:51:43;;;;;;;0.20;0.20;;;7.50;96.00;;;;;;4068758;29;20109;-88
2020/12/04 05:53:44;;;;;;;0.20;0.20;;;7.50;95.90;;;;;;4083075;29;20075;-89
2020/12/04 05:55:53;;;;;;;0.35;0.35;;;7.60;95.90;;;;;;4098252;29;20061;-89
2020/12/04 05:57:55;;;;;;;0.20;0.20;;;7.60;96.00;;;;;;4069606;29;20066;-90
2020/12/04 06:00:00;;;;;;;0.10;0.10;;;7.60;95.90;;;;;;4083377;28;20126;-88
2020/12/04 06:02:01;;;;;;;0.20;0.20;;;7.50;96.00;;;;;;4085702;28;20413;-88
2020/12/04 06:04:02;;;;;;;0.30;0.30;;;7.60;95.80;;;;;;4088114;28;20191;-87
2020/12/04 06:06:03;;;;;;;0.20;0.20;;;7.60;96.40;;;;;;4067746;29;20063;-89
2020/12/04 06:08:05;;;;;;;0.40;0.40;;;7.60;96.10;;;;;;4082649;29;20055;-89
2020/12/04 06:10:07;;;;;;;0.20;0.20;;;7.60;96.10;;;;;;4082690;29;20055;-89
2020/12/04 06:12:13;;;;;;;0.20;0.20;;;7.60;96.00;;;;;;4067618;29;20135;-89
2020/12/04 06:14:18;;;;;;;0.20;0.20;;;7.70;96.20;;;;;;4068008;29;20506;-89
2020/12/04 06:16:19;;;;;;;0.20;0.20;;;7.60;96.50;;;;;;4105839;28;20057;-89
2020/12/04 06:18:21;;;;;;;1.25;1.05;;;7.70;96.30;;;;;;4067031;29;20052;-88
2020/12/04 06:20:23;;;;;;;0.47;0.20;;;7.70;96.50;;;;;;4064757;29;20143;-89
2020/12/04 06:22:24;;;;;;;0.15;0.15;;;7.70;96.50;;;;;;4067096;29;20052;-88
2020/12/04 06:24:26;;;;;;;0.20;0.20;;;7.70;96.40;;;;;;4067843;29;20052;-89
2020/12/04 06:26:45;;;;;;;0.30;0.30;;;7.80;96.30;;;;;;4098063;28;20054;-90
2020/12/04 06:28:55;;;;;;;0.25;0.25;;;7.80;96.50;;;;;;4100751;28;20066;-89
2020/12/04 06:31:10;;;;;;;0.77;0.75;;;7.90;96.20;;;;;;4070941;29;20054;-90
2020/12/04 06:33:31;;;;;;;0.52;0.52;;;7.90;96.30;;;;;;4071406;29;20058;-88
2020/12/04 06:35:40;;;;;;;0.20;0.20;;;7.80;96.70;;;;;;4101482;28;20039;-88
2020/12/04 06:37:43;;;;;;;0.30;0.30;;;7.80;97.00;;;;;;4085764;29;20484;-88
2020/12/04 06:39:44;;;;;;;0.20;0.20;;;7.80;96.80;;;;;;4085790;29;20055;-88
2020/12/04 06:41:46;;;;;;;0.25;0.25;;;7.80;96.90;;;;;;4070509;29;20052;-88
2020/12/04 06:43:48;;;;;;;0.20;0.20;;;7.80;97.10;;;;;;4085921;29;20457;-89
2020/12/04 06:45:50;;;;;;;0.30;0.30;;;7.80;97.40;;;;;;4084909;29;20081;-89
2020/12/04 06:48:18;;;;;;;0.25;0.25;;;7.80;97.30;;;;;;4070505;29;20056;-89
2020/12/04 06:50:39;;;;;;;0.20;0.20;;;7.80;96.90;;;;;;4083993;29;20056;-89
2020/12/04 06:52:40;;;;;;;0.43;0.20;;;7.90;97.10;;;;;;4085671;29;20059;-88
2020/12/04 06:54:46;;;;;;;0.30;0.30;;;7.80;97.00;;;;;;4070258;29;20060;-88
2020/12/04 06:56:49;;;;;;;0.20;0.20;;;7.80;97.20;;;;;;4070079;29;20205;-87
2020/12/04 06:58:53;;;;;;;0.63;0.40;;;7.80;97.50;;;;;;4085414;29;20060;-88
2020/12/04 07:00:55;;;;;;;0.30;0.30;;;7.80;97.60;;;;;;4069565;29;20060;-88
2020/12/04 07:03:00;;;;;;;0.20;0.20;;;7.70;97.90;;;;;;4085492;29;20089;-88
2020/12/04 07:05:01;;;;;;;0.30;0.30;;;7.70;97.90;;;;;;4084503;29;20055;-88
2020/12/04 07:07:10;;;;;;;0.30;0.30;;;7.70;97.90;;;;;;4084313;29;20066;-89
2020/12/04 07:09:12;;;;;;;0.30;0.30;;;7.70;98.10;;;;;;4070775;29;20478;-88
2020/12/04 07:11:14;;;;;;;0.20;0.20;;;7.60;98.00;;;;;;4085419;29;20138;-87
2020/12/04 07:13:15;;;;;;;0.70;0.22;;;7.60;98.00;;;;;;4085581;29;20055;-88
2020/12/04 07:15:16;;;;;;;0.20;0.20;;;7.60;98.10;;;;;;4101582;28;20555;-87
2020/12/04 07:17:20;;;;;;;0.35;0.35;;;7.60;97.90;;;;;;4068899;29;20055;-88
2020/12/04 07:19:22;;;;;;;0.20;0.20;;;7.60;98.10;;;;;;4063982;29;20211;-88
2020/12/04 07:21:26;;;;;;;0.30;0.30;;;7.50;98.00;;;;;;4084300;29;20565;-90
2020/12/04 07:23:28;;;;;;;0.40;0.40;;;7.50;98.00;;;;;;4101683;28;20051;-84
2020/12/04 07:25:29;;;;;;;0.40;0.40;;;7.50;98.10;;;;;;4100162;28;20053;-85
2020/12/04 07:27:30;;;;;;;0.30;0.30;;;7.50;97.80;;;;;;4085109;29;20050;-85
2020/12/04 07:29:32;;;;;;;0.28;0.28;;;7.50;97.70;;;;;;4099961;28;20044;-85
2020/12/04 07:31:33;;;;;;;0.43;0.20;;;7.50;97.80;;;;;;4100072;28;20051;-82
2020/12/04 07:33:34;;;;;;;1.10;0.47;;;7.50;97.70;;;;;;4100983;28;20578;-85
2020/12/04 07:35:36;;;;;;;0.20;0.20;;;7.60;97.40;;;;;;4099550;28;20043;-85
2020/12/04 07:37:37;;;;;;;0.30;0.30;;;7.60;97.10;;;;;;4100016;28;20054;-84
2020/12/04 07:39:39;;;;;;;0.25;0.25;;;7.60;96.90;;;;;;4101401;28;20044;-84
2020/12/04 07:41:41;;;;;;;0.35;0.35;;;7.60;96.20;;;;;;4084153;29;20058;-84
2020/12/04 07:43:43;;;;;;;0.30;0.30;;;7.60;95.70;;;;;;4084481;29;20056;-85
2020/12/04 07:45:44;;;;;;;0.77;0.50;;;7.60;95.70;;;;;;4084381;29;20499;-85
2020/12/04 07:47:47;;;;;;;0.50;0.50;;;7.70;95.70;;;;;;4084881;29;20052;-86
2020/12/04 07:49:51;;;;;;;0.20;0.20;;;7.60;95.90;;;;;;4100045;28;20531;-87
2020/12/04 07:51:52;;;;;;;0.43;0.32;;;7.60;96.60;;;;;;4099882;28;20048;-85
2020/12/04 07:53:55;;;;;;;0.50;0.50;;;7.50;97.30;;;;;;4084855;29;20498;-85
2020/12/04 07:55:57;;;;;;;0.32;0.32;;;7.50;97.60;;;;;;4083974;29;20524;-85
2020/12/04 07:58:11;;;;;;;0.32;0.30;;;7.50;97.70;;;;;;4099907;28;20051;-85
2020/12/04 08:00:15;;;;;;;1.52;0.98;;;7.50;97.80;;;;;;4098908;28;20050;-85
2020/12/04 08:02:22;;;;;;;0.52;0.52;;;7.50;97.50;;;;;;4100121;28;20047;-85
2020/12/04 08:04:23;;;;;;;0.40;0.40;;;7.50;97.80;;;;;;4099678;29;20046;-85
2020/12/04 08:06:25;;;;;;;0.77;0.77;;;7.50;97.70;;;;;;4099783;28;20065;-85
2020/12/04 08:08:26;;;;;;;0.55;0.40;;;7.40;97.80;;;;;;4101005;28;20047;-85
2020/12/04 08:10:28;;;;;;;2.53;0.85;;;7.40;97.50;;;;;;4100593;28;20045;-85
2020/12/04 08:12:33;;;;;;;0.45;0.45;;;7.40;97.30;;;;;;4100199;28;20059;-85
2020/12/04 08:14:35;;;;;;;0.20;0.20;;;7.40;97.20;;;;;;4068199;29;20135;-85
2020/12/04 08:16:36;;;;;;;0.50;0.40;;;7.40;97.20;;;;;;4099189;28;20514;-84
2020/12/04 08:18:38;;;;;;;0.80;0.55;;;7.40;97.10;;;;;;4099175;28;20051;-85
2020/12/04 08:20:40;;;;;;;0.35;0.35;;;7.40;97.30;;;;;;4100377;28;20051;-85
2020/12/04 08:22:41;;;;;;;0.30;0.30;;;7.40;97.30;;;;;;4100260;28;20047;-87
2020/12/04 08:25:02;;;;;;;0.20;0.20;;;7.40;97.50;;;;;;4099452;28;20062;-86
2020/12/04 08:27:09;;;;;;;0.82;0.82;;;7.50;97.40;;;;;;4096491;28;20047;-87
2020/12/04 08:29:12;;;;;;;0.20;0.20;;;7.50;97.60;;;;;;4083951;29;20058;-87
2020/12/04 08:31:26;;;;;;;1.50;0.52;;;7.50;97.50;;;;;;4099814;28;20054;-85
2020/12/04 08:33:27;;;;;;;0.20;0.20;;;7.50;97.60;;;;;;4083939;29;20067;-86
2020/12/04 08:35:35;;;;;;;0.35;0.35;;;7.50;97.60;;;;;;4083328;29;20157;-89
2020/12/04 08:37:37;;;;;;;1.17;0.82;;;7.50;97.60;;;;;;4087340;29;20102;-85
2020/12/04 08:39:46;;;;;;;0.30;0.30;;;7.50;97.70;;;;;;4103086;28;20480;-87
2020/12/04 08:41:47;;;;;;;1.00;0.93;;;7.50;97.80;;;;;;4082546;29;20427;-85
2020/12/04 08:43:49;;;;;;;0.30;0.30;;;7.40;97.70;;;;;;4099558;28;20051;-92
2020/12/04 08:45:57;;;;;;;0.38;0.38;;;7.40;97.70;;;;;;4084456;29;20451;-89
2020/12/04 08:48:18;;;;;;;0.30;0.30;;;7.40;97.80;;;;;;4084954;29;20582;-91
2020/12/04 08:50:21;;;;;;;0.80;0.80;;;7.40;97.80;;;;;;4112887;28;20129;-87
2020/12/04 08:52:37;;;;;;;0.20;0.20;;;7.30;97.70;;;;;;4099483;28;20047;-88
2020/12/04 08:54:38;;;;;;;0.50;0.50;;;7.30;97.70;;;;;;4098909;29;20586;-90
2020/12/04 08:56:51;;;;;;;0.30;0.30;;;7.20;97.80;;;;;;4100122;28;20186;-92
2020/12/04 08:58:52;;;;;;;0.30;0.30;;;7.20;97.80;;;;;;4099357;28;20055;-89
2020/12/04 09:00:54;;;;;;;0.30;0.30;;;7.30;97.90;;;;;;4099279;28;20062;-88
2020/12/04 09:02:56;;;;;;;0.30;0.30;;;7.20;98.00;;;;;;4100744;28;20499;-88
2020/12/04 09:04:57;;;;;;;2.03;0.85;;;7.20;98.00;;;;;;4088813;29;20043;-89
2020/12/04 09:06:58;;;;;;;0.50;0.50;;;7.20;98.10;;;;;;4092140;28;20480;-88
2020/12/04 09:08:59;;;;;;;0.20;0.20;;;7.20;98.10;;;;;;4112503;28;20142;-85
2020/12/04 09:11:01;;;;;;;0.45;0.45;;;7.10;98.10;;;;;;4106972;28;20049;-85
2020/12/04 09:13:02;;;;;;;0.20;0.20;;;7.10;98.20;;;;;;4102578;28;20058;-88
2020/12/04 09:15:07;;;;;;;0.40;0.40;;;7.10;98.30;;;;;;4100201;28;20062;-85
2020/12/04 09:17:09;;;;;;;0.30;0.30;;;7.00;98.40;;;;;;4083221;29;20138;-85
2020/12/04 09:19:10;;;;;;;0.20;0.20;;;7.10;98.20;;;;;;4099048;28;20047;-87
2020/12/04 09:21:11;;;;;;;0.20;0.20;;;7.00;98.00;;;;;;4102304;28;20047;-87
2020/12/04 09:23:13;;;;;;;0.20;0.20;;;7.00;98.00;;;;;;4099033;28;20043;-84
2020/12/04 09:25:14;;;;;;;0.40;0.40;;;7.10;98.30;;;;;;4083190;29;20143;-86
2020/12/04 09:27:16;;;;;;;0.57;0.57;;;7.10;98.20;;;;;;4071955;29;20464;-85
2020/12/04 09:29:18;;;;;;;0.30;0.30;;;7.10;98.10;;;;;;4088384;28;20055;-82
2020/12/04 09:31:19;;;;;;;0.32;0.32;;;7.10;97.90;;;;;;4104780;28;20510;-84
2020/12/04 09:33:20;;;;;;;0.40;0.40;;;7.10;97.90;;;;;;4098814;28;20057;-85
2020/12/04 09:35:21;;;;;;;0.30;0.30;;;7.10;98.00;;;;;;4099089;28;20053;-85
2020/12/04 09:37:27;;;;;;;1.20;0.57;;;7.10;97.90;;;;;;4099183;28;20055;-85
2020/12/04 09:39:29;;;;;;;0.50;0.40;;;7.10;97.80;;;;;;4099980;28;20051;-84
2020/12/04 09:41:31;;;;;;;0.88;0.47;;;7.00;98.10;;;;;;4114362;28;20046;-87
2020/12/04 09:43:32;;;;;;;0.30;0.30;;;7.00;98.00;;;;;;4099562;28;20081;-85
2020/12/04 09:45:33;;;;;;;0.73;0.40;;;7.10;97.70;;;;;;4101136;28;20055;-88
2020/12/04 09:47:35;;;;;;;2.17;0.63;;;7.00;97.60;;;;;;4071829;29;20056;-84
2020/12/04 09:49:36;;;;;;;0.40;0.40;;;7.00;97.80;;;;;;4104225;28;20369;-85
2020/12/04 09:51:37;;;;;;;0.50;0.40;;;7.10;97.90;;;;;;4101610;28;20043;-83
2020/12/04 09:53:39;;;;;;;0.85;0.70;;;7.00;97.70;;;;;;4107653;28;20057;-84
2020/12/04 09:55:40;;;;;;;1.73;0.70;;;7.10;97.60;;;;;;4103335;28;20051;-86
2020/12/04 09:57:41;;;;;;;0.82;0.50;;;7.10;97.60;;;;;;4090387;28;20061;-87
2020/12/04 09:59:43;;;;;;;1.50;0.57;;;7.20;97.50;;;;;;4083683;29;20134;-84
2020/12/04 10:01:44;;;;;;;0.20;0.20;;;7.20;97.40;;;;;;4098250;28;20047;-86
2020/12/04 10:03:48;;;;;;;0.40;0.40;;;7.20;97.40;;;;;;4099310;28;20050;-89
2020/12/04 10:05:49;;;;;;;1.00;1.00;;;7.30;97.20;;;;;;4099024;28;20451;-88
2020/12/04 10:07:51;;;;;;;0.20;0.20;;;7.20;97.60;;;;;;4113693;28;20058;-87
2020/12/04 10:09:52;;;;;;;0.30;0.30;;;7.20;96.90;;;;;;4098858;28;20133;-85
2020/12/04 10:11:53;;;;;;;0.60;0.57;;;7.10;96.90;;;;;;4115619;28;20062;-86
2020/12/04 10:13:54;;;;;;;0.73;0.73;;;7.10;97.60;;;;;;4114192;28;20065;-96
2020/12/04 10:16:02;;;;;;;0.68;0.68;;;7.00;98.60;;;;;;4103213;28;20115;-84
2020/12/04 10:18:06;;;;;;;0.52;0.52;;;7.00;98.00;;;;;;4095339;28;20514;-87
2020/12/04 10:20:08;;;;;;;0.30;0.30;;;7.10;98.10;;;;;;4115133;28;20039;-86
2020/12/04 10:22:09;;;;;;;0.30;0.30;;;7.10;98.20;;;;;;4115245;28;20047;-82
2020/12/04 10:24:10;;;;;;;0.20;0.20;;;7.10;97.80;;;;;;4116114;28;20055;-87
2020/12/04 10:26:12;;;;;;;0.30;0.30;;;7.20;98.00;;;;;;4102726;28;20075;-84
2020/12/04 10:28:13;;;;;;;0.13;0.13;;;7.20;98.00;;;;;;4115425;28;20487;-88
2020/12/04 10:30:14;;;;;;;0.40;0.40;;;7.20;96.60;;;;;;4115951;28;20050;-87
2020/12/04 10:32:15;;;;;;;0.38;0.38;;;7.20;95.50;;;;;;4114083;28;20080;-87
2020/12/04 10:34:17;;;;;;;0.47;0.47;;;7.20;96.00;;;;;;4106354;28;20062;-87
2020/12/04 10:36:18;;;;;;;0.57;0.57;;;7.10;96.80;;;;;;4114962;28;20053;-85
2020/12/04 10:38:19;;;;;;;0.40;0.40;;;7.10;96.90;;;;;;4114982;28;20046;-84
2020/12/04 10:40:20;;;;;;;0.47;0.47;;;7.20;97.40;;;;;;4114620;28;20047;-89
2020/12/04 10:42:22;;;;;;;0.30;0.30;;;7.20;97.50;;;;;;4114589;28;20042;-87
2020/12/04 10:44:23;;;;;;;0.80;0.80;;;7.10;97.60;;;;;;4109175;28;20061;-87
2020/12/04 10:46:27;;;;;;;0.20;0.20;;;7.20;97.70;;;;;;4112429;28;20053;-87
2020/12/04 10:48:29;;;;;;;0.63;0.63;;;7.20;97.70;;;;;;4099682;28;20053;-84